createdAt,value
2022-11-17T00:01:35.395Z,99181.97
2022-11-17T00:04:03.673Z,99178.02
2022-11-17T00:06:31.940Z,99173.81
2022-11-17T00:09:00.163Z,99166.98
2022-11-17T00:11:48.447Z,99165.77
2022-11-17T00:14:36.714Z,99173.78
2022-11-17T00:17:09.139Z,99174.23
2022-11-17T00:19:56.811Z,99168.16
2022-11-17T00:22:26.020Z,99170.58
2022-11-17T00:24:54.232Z,99174.33
2022-11-17T00:27:22.477Z,99169.69
2022-11-17T00:29:50.728Z,99174.32
2022-11-17T00:32:38.389Z,99181.04
2022-11-17T00:35:07.269Z,99181.53
2022-11-17T00:38:00.437Z,99174.41
2022-11-17T00:40:28.845Z,99165.10
2022-11-17T00:42:57.062Z,99160.95
2022-11-17T00:45:25.261Z,99157.52
2022-11-17T00:47:53.455Z,99154.77
2022-11-17T00:50:21.654Z,99159.84
2022-11-17T00:52:49.895Z,99168.96
2022-11-17T00:55:18.163Z,99179.50
2022-11-17T00:57:46.374Z,99183.07
2022-11-17T01:00:16.123Z,99185.04
2022-11-17T01:02:44.328Z,99181.99
2022-11-17T01:05:12.609Z,99174.09
2022-11-17T01:07:41.002Z,99166.53
2022-11-17T01:10:10.299Z,99164.38
2022-11-17T01:12:38.551Z,99163.64
2022-11-17T01:15:08.358Z,99164.17
2022-11-17T01:17:36.588Z,99167.14
2022-11-17T01:20:05.672Z,99168.79
2022-11-17T01:22:33.889Z,99170.58
2022-11-17T01:25:02.112Z,99175.39
2022-11-17T01:27:30.393Z,99174.03
2022-11-17T01:29:58.619Z,99172.78
2022-11-17T01:32:26.889Z,99166.59
2022-11-17T01:34:55.068Z,99168.93
2022-11-17T01:37:23.287Z,99164.95
2022-11-17T01:39:51.527Z,99164.04
2022-11-17T01:42:24.293Z,99161.42
2022-11-17T01:45:19.410Z,99157.70
2022-11-17T01:48:03.211Z,99153.59
2022-11-17T01:50:49.405Z,99150.29
2022-11-17T01:53:20.524Z,99154.38
2022-11-17T01:55:59.891Z,99153.48
2022-11-17T01:58:39.638Z,99144.61
2022-11-17T02:01:07.889Z,99133.73
2022-11-17T02:03:37.275Z,99131.02
2022-11-17T02:06:17.181Z,99137.92
2022-11-17T02:08:47.102Z,99140.63
2022-11-17T02:11:19.332Z,99135.05
2022-11-17T02:13:49.085Z,99131.77
2022-11-17T02:16:18.077Z,99135.48
2022-11-17T02:18:48.665Z,99140.29
2022-11-17T02:21:49.487Z,99136.34
2022-11-17T02:24:31.505Z,99142.41
2022-11-17T02:27:46.985Z,99140.41
2022-11-17T02:30:21.940Z,99142.67
2022-11-17T02:33:30.256Z,99142.95
2022-11-17T02:36:33.361Z,99138.55
2022-11-17T02:39:13.250Z,99138.59
2022-11-17T02:41:52.937Z,99143.88
2022-11-17T02:44:56.509Z,99142.34
2022-11-17T02:47:30.277Z,99142.55
2022-11-17T02:50:06.657Z,99143.65
2022-11-17T02:52:35.096Z,99141.85
2022-11-17T02:55:10.536Z,99137.66
2022-11-17T02:57:41.140Z,99135.56
2022-11-17T03:00:20.094Z,99136.05
2022-11-17T03:03:07.124Z,99135.94
2022-11-17T03:05:56.929Z,99125.11
2022-11-17T03:08:44.419Z,99125.65
2022-11-17T03:11:13.858Z,99118.96
2022-11-17T03:13:48.212Z,99116.91
2022-11-17T03:16:37.909Z,99097.86
2022-11-17T03:19:25.996Z,99087.52
2022-11-17T03:22:28.208Z,99090.20
2022-11-17T03:25:02.817Z,99087.84
2022-11-17T03:27:42.894Z,99096.20
2022-11-17T03:30:12.754Z,99097.55
2022-11-17T03:32:45.467Z,99098.85
2022-11-17T03:35:24.977Z,99098.96
2022-11-17T03:38:01.555Z,99090.77
2022-11-17T03:40:32.908Z,99088.30
2022-11-17T03:43:07.039Z,99084.47
2022-11-17T03:45:40.303Z,99086.88
2022-11-17T03:48:28.987Z,99094.13
2022-11-17T03:51:19.149Z,99084.14
2022-11-17T03:53:48.107Z,99085.59
2022-11-17T03:56:43.360Z,99088.10
2022-11-17T03:59:19.154Z,99087.91
2022-11-17T04:01:47.491Z,99095.30
2022-11-17T04:04:21.601Z,99103.41
2022-11-17T04:06:53.321Z,99104.61
2022-11-17T04:09:24.598Z,99102.66
2022-11-17T04:12:11.784Z,99101.70
2022-11-17T04:14:58.535Z,99097.88
2022-11-17T04:17:26.843Z,99087.89
2022-11-17T04:19:55.190Z,99085.08
2022-11-17T04:22:23.469Z,99077.64
2022-11-17T04:24:51.794Z,99081.67
2022-11-17T04:27:38.595Z,99079.48
2022-11-17T04:30:07.532Z,99080.45
2022-11-17T04:32:35.799Z,99076.70
2022-11-17T04:35:04.528Z,99077.27
2022-11-17T04:37:32.921Z,99076.64
2022-11-17T04:40:01.224Z,99073.03
2022-11-17T04:42:29.537Z,99070.16
2022-11-17T04:44:57.946Z,99067.95
2022-11-17T04:47:26.208Z,99065.98
2022-11-17T04:49:54.523Z,99062.95
2022-11-17T04:52:26.933Z,99065.30
2022-11-17T04:54:58.054Z,99061.98
2022-11-17T04:57:26.304Z,99061.66
2022-11-17T04:59:54.701Z,99061.11
2022-11-17T05:02:22.989Z,99064.44
2022-11-17T05:04:57.093Z,99065.85
2022-11-17T05:07:25.436Z,99069.71
2022-11-17T05:09:53.787Z,99066.52
2022-11-17T05:12:40.654Z,99070.71
2022-11-17T05:15:09.403Z,99069.75
2022-11-17T05:17:37.611Z,99070.16
2022-11-17T05:20:07.004Z,99068.25
2022-11-17T05:22:53.959Z,99064.16
2022-11-17T05:25:22.315Z,99057.13
2022-11-17T05:27:50.649Z,99056.58
2022-11-17T05:30:19.091Z,99057.02
2022-11-17T05:32:47.340Z,99056.51
2022-11-17T05:35:18.288Z,99053.09
2022-11-17T05:37:46.749Z,99049.39
2022-11-17T05:40:15.672Z,99047.11
2022-11-17T05:42:46.170Z,99043.27
2022-11-17T05:45:14.514Z,99039.17
2022-11-17T05:47:43.164Z,99034.08
2022-11-17T05:50:11.506Z,99030.79
2022-11-17T05:52:39.932Z,99028.90
2022-11-17T05:55:08.190Z,99027.30
2022-11-17T05:57:36.698Z,99026.16
2022-11-17T06:00:05.941Z,99020.10
2022-11-17T06:02:56.877Z,99020.02
2022-11-17T06:05:25.995Z,99013.27
2022-11-17T06:07:57.834Z,99012.50
2022-11-17T06:10:27.355Z,99014.73
2022-11-17T06:12:56.282Z,99013.07
2022-11-17T06:15:24.634Z,99010.33
2022-11-17T06:18:03.961Z,99010.55
2022-11-17T06:20:41.338Z,99007.11
2022-11-17T06:23:11.846Z,99002.59
2022-11-17T06:25:40.257Z,99000.05
2022-11-17T06:28:15.217Z,99001.36
2022-11-17T06:30:44.061Z,98995.47
2022-11-17T06:33:15.751Z,98997.85
2022-11-17T06:35:45.913Z,98996.27
2022-11-17T06:38:14.302Z,98987.85
2022-11-17T06:40:42.683Z,98982.74
2022-11-17T06:43:11.106Z,98983.60
2022-11-17T06:45:41.725Z,98976.63
2022-11-17T06:48:12.813Z,98969.77
2022-11-17T06:50:41.592Z,98968.30
2022-11-17T06:53:12.400Z,98967.04
2022-11-17T06:55:42.010Z,98968.55
2022-11-17T06:58:11.828Z,98969.48
2022-11-17T07:00:40.402Z,98963.04
2022-11-17T07:03:11.052Z,98965.08
2022-11-17T07:05:40.437Z,98963.46
2022-11-17T07:08:09.629Z,98965.35
2022-11-17T07:10:38.628Z,98964.77
2022-11-17T07:13:07.228Z,98964.98
2022-11-17T07:15:35.787Z,98970.09
2022-11-17T07:18:04.390Z,98963.73
2022-11-17T07:20:32.903Z,98961.39
2022-11-17T07:23:01.419Z,98959.29
2022-11-17T07:25:29.928Z,98952.84
2022-11-17T07:28:00.425Z,98950.39
2022-11-17T07:30:29.423Z,98948.94
2022-11-17T07:33:04.059Z,98943.73
2022-11-17T07:35:32.464Z,98937.05
2022-11-17T07:38:01.661Z,98931.46
2022-11-17T07:40:31.675Z,98927.72
2022-11-17T07:43:00.477Z,98930.11
2022-11-17T07:45:31.804Z,98928.27
2022-11-17T07:48:03.263Z,98927.09
2022-11-17T07:50:32.742Z,98929.89
2022-11-17T07:53:01.939Z,98932.14
2022-11-17T07:55:30.312Z,98938.55
2022-11-17T07:58:01.221Z,98937.64
2022-11-17T08:00:31.860Z,98931.59
2022-11-17T08:03:02.246Z,98928.84
2022-11-17T08:05:32.380Z,98921.77
2022-11-17T08:08:00.760Z,98920.06
2022-11-17T08:10:32.516Z,98923.65
2022-11-17T08:13:01.752Z,98923.56
2022-11-17T08:15:30.972Z,98923.23
2022-11-17T08:18:01.316Z,98926.42
2022-11-17T08:20:30.263Z,98928.15
2022-11-17T08:22:58.802Z,98927.27
2022-11-17T08:25:28.062Z,98924.64
2022-11-17T08:27:58.333Z,98928.02
2022-11-17T08:30:27.022Z,98930.73
2022-11-17T08:32:55.415Z,98926.36
2022-11-17T08:35:26.090Z,98925.70
2022-11-17T08:37:55.278Z,98926.19
2022-11-17T08:40:23.639Z,98922.91
2022-11-17T08:43:00.312Z,98923.31
2022-11-17T08:45:29.194Z,98921.80
2022-11-17T08:47:57.907Z,98923.14
2022-11-17T08:50:26.925Z,98922.41
2022-11-17T08:52:55.323Z,98923.09
2022-11-17T08:55:23.884Z,98923.77
2022-11-17T08:57:52.270Z,98923.14
2022-11-17T09:00:22.009Z,98913.61
2022-11-17T09:02:50.376Z,98911.23
2022-11-17T09:05:18.724Z,98913.27
2022-11-17T09:07:47.138Z,98907.92
2022-11-17T09:10:15.585Z,98906.08
2022-11-17T09:12:43.973Z,98905.34
2022-11-17T09:15:12.526Z,98901.05
2022-11-17T09:17:43.116Z,98898.98
2022-11-17T09:20:12.386Z,98894.17
2022-11-17T09:22:40.730Z,98895.96
2022-11-17T09:25:13.335Z,98894.80
2022-11-17T09:27:42.076Z,98890.45
2022-11-17T09:30:11.308Z,98888.00
2022-11-17T09:32:39.699Z,98886.90
2022-11-17T09:35:09.468Z,98884.71
2022-11-17T09:37:37.817Z,98885.94
2022-11-17T09:40:07.571Z,98884.14
2022-11-17T09:42:40.746Z,98881.66
2022-11-17T09:45:14.813Z,98880.31
2022-11-17T09:47:51.536Z,98879.64
2022-11-17T09:50:45.292Z,98879.32
2022-11-17T09:53:24.381Z,98876.84
2022-11-17T09:56:03.639Z,98873.41
2022-11-17T09:58:58.914Z,98875.52
2022-11-17T10:01:29.212Z,98875.14
2022-11-17T10:04:17.058Z,98872.70
2022-11-17T10:07:04.245Z,98867.14
2022-11-17T10:09:52.272Z,98866.71
2022-11-17T10:12:32.511Z,98870.05
2022-11-17T10:15:22.276Z,98873.42
2022-11-17T10:17:50.982Z,98870.91
2022-11-17T10:20:20.161Z,98872.33
2022-11-17T10:22:52.354Z,98866.60
2022-11-17T10:25:37.876Z,98865.39
2022-11-17T10:28:09.342Z,98871.64
2022-11-17T10:30:37.693Z,98864.68
2022-11-17T10:33:06.392Z,98862.75
2022-11-17T10:35:36.268Z,98863.65
2022-11-17T10:38:08.391Z,98861.23
2022-11-17T10:40:39.457Z,98861.52
2022-11-17T10:43:14.003Z,98863.20
2022-11-17T10:45:47.984Z,98863.85
2022-11-17T10:48:19.539Z,98861.63
2022-11-17T10:51:00.111Z,98863.66
2022-11-17T10:53:46.674Z,98864.19
2022-11-17T10:56:25.086Z,98866.31
2022-11-17T10:59:02.311Z,98866.27
2022-11-17T11:01:46.495Z,98862.21
2022-11-17T11:04:42.109Z,98864.28
2022-11-17T11:07:24.311Z,98863.93
2022-11-17T11:10:07.687Z,98858.76
2022-11-17T11:12:52.561Z,98855.49
2022-11-17T11:15:24.725Z,98858.11
2022-11-17T11:17:53.098Z,98857.14
2022-11-17T11:20:41.916Z,98856.52
2022-11-17T11:23:19.847Z,98858.54
2022-11-17T11:26:01.819Z,98856.61
2022-11-17T11:28:55.070Z,98855.05
2022-11-17T11:31:39.375Z,98857.36
2022-11-17T11:34:20.327Z,98856.38
2022-11-17T11:36:59.471Z,98854.48
2022-11-17T11:39:55.380Z,98860.38
2022-11-17T11:42:35.619Z,98860.12
2022-11-17T11:45:33.917Z,98862.85
2022-11-17T11:48:34.020Z,98863.55
2022-11-17T11:51:13.747Z,98861.33
2022-11-17T11:54:00.053Z,98851.05
2022-11-17T11:56:46.297Z,98853.89
2022-11-17T11:59:50.313Z,98854.81
2022-11-17T12:02:27.774Z,98853.77
2022-11-17T12:05:05.167Z,98865.70
2022-11-17T12:08:17.816Z,98864.54
2022-11-17T12:11:25.716Z,98860.36
2022-11-17T12:13:54.713Z,98863.67
2022-11-17T12:16:41.067Z,98864.09
2022-11-17T12:19:53.565Z,98866.77
2022-11-17T12:22:33.826Z,98865.83
2022-11-17T12:25:29.250Z,98862.69
2022-11-17T12:27:57.946Z,98869.30
2022-11-17T12:30:37.731Z,98873.92
2022-11-17T12:33:08.697Z,98875.33
2022-11-17T12:35:39.721Z,98877.14
2022-11-17T12:38:17.118Z,98876.04
2022-11-17T12:40:54.083Z,98872.31
2022-11-17T12:43:27.847Z,98870.77
2022-11-17T12:45:56.157Z,98875.48
2022-11-17T12:48:35.092Z,98878.91
2022-11-17T12:51:10.835Z,98883.05
2022-11-17T12:53:59.060Z,98887.77
2022-11-17T12:57:00.377Z,98893.99
2022-11-17T12:59:42.062Z,98895.69
2022-11-17T13:02:31.476Z,98895.38
2022-11-17T13:05:08.586Z,98895.95
2022-11-17T13:07:37.119Z,98894.26
2022-11-17T13:10:06.037Z,98898.02
2022-11-17T13:12:34.461Z,98900.17
2022-11-17T13:15:05.688Z,98900.91
2022-11-17T13:17:43.805Z,98910.10
2022-11-17T13:20:30.157Z,98909.86
2022-11-17T13:23:09.614Z,98912.67
2022-11-17T13:25:37.900Z,98913.00
2022-11-17T13:28:06.365Z,98916.38
2022-11-17T13:30:34.862Z,98918.89
2022-11-17T13:33:04.127Z,98922.79
2022-11-17T13:35:35.979Z,98932.70
2022-11-17T13:38:07.080Z,98931.65
2022-11-17T13:40:37.222Z,98939.77
2022-11-17T13:43:07.619Z,98946.54
2022-11-17T13:45:36.064Z,98948.30
2022-11-17T13:48:04.450Z,98948.12
2022-11-17T13:50:37.458Z,98948.52
2022-11-17T13:53:09.378Z,98952.98
2022-11-17T13:55:45.121Z,98953.19
2022-11-17T13:58:40.912Z,98952.38
2022-11-17T14:01:13.804Z,98954.92
2022-11-17T14:03:46.620Z,98954.06
2022-11-17T14:06:15.100Z,98960.95
2022-11-17T14:09:02.508Z,98963.39
2022-11-17T14:11:31.177Z,98966.09
2022-11-17T14:14:01.372Z,98967.02
2022-11-17T14:16:41.927Z,98968.18
2022-11-17T14:19:16.454Z,98971.53
2022-11-17T14:22:09.601Z,98977.04
2022-11-17T14:24:38.167Z,98976.77
2022-11-17T14:27:34.835Z,98980.73
2022-11-17T14:30:05.656Z,98985.65
2022-11-17T14:32:35.084Z,98984.83
2022-11-17T14:35:03.700Z,98987.95
2022-11-17T14:37:32.714Z,98993.98
2022-11-17T14:40:03.965Z,98994.09
2022-11-17T14:42:35.933Z,98998.27
2022-11-17T14:45:05.280Z,98998.04
2022-11-17T14:47:33.656Z,99003.42
2022-11-17T14:50:02.141Z,99007.98
2022-11-17T14:52:30.517Z,99014.48
2022-11-17T14:54:59.258Z,99014.83
2022-11-17T14:57:27.581Z,99019.02
2022-11-17T14:59:55.891Z,99019.09
2022-11-17T15:02:24.321Z,99020.45
2022-11-17T15:04:53.263Z,99027.58
2022-11-17T15:07:22.088Z,99029.13
2022-11-17T15:09:50.422Z,99037.69
2022-11-17T15:12:18.817Z,99040.01
2022-11-17T15:14:48.100Z,99052.24
2022-11-17T15:17:17.037Z,99052.49
2022-11-17T15:19:45.731Z,99056.95
2022-11-17T15:22:14.165Z,99063.99
2022-11-17T15:24:42.582Z,99068.91
2022-11-17T15:27:12.467Z,99074.60
2022-11-17T15:29:40.764Z,99074.44
2022-11-17T15:32:09.135Z,99081.98
2022-11-17T15:34:37.428Z,99086.71
2022-11-17T15:37:05.889Z,99096.03
2022-11-17T15:39:34.234Z,99100.17
2022-11-17T15:42:02.553Z,99105.19
2022-11-17T15:44:30.854Z,99111.70
2022-11-17T15:46:59.150Z,99116.79
2022-11-17T15:49:27.454Z,99124.72
2022-11-17T15:51:55.783Z,99128.29
2022-11-17T15:54:24.151Z,99131.33
2022-11-17T15:56:52.629Z,99136.77
2022-11-17T15:59:21.190Z,99136.21
2022-11-17T16:01:49.762Z,99136.00
2022-11-17T16:04:18.198Z,99136.96
2022-11-17T16:06:47.049Z,99142.44
2022-11-17T16:09:16.279Z,99141.02
2022-11-17T16:11:44.868Z,99145.91
2022-11-17T16:14:15.025Z,99156.86
2022-11-17T16:16:46.129Z,99160.48
2022-11-17T16:19:14.931Z,99157.52
2022-11-17T16:21:44.677Z,99163.60
2022-11-17T16:24:13.355Z,99175.28
2022-11-17T16:26:41.760Z,99169.69
2022-11-17T16:29:10.518Z,99163.83
2022-11-17T16:31:39.926Z,99172.59
2022-11-17T16:34:13.798Z,99177.20
2022-11-17T16:36:44.012Z,99181.83
2022-11-17T16:39:17.203Z,99183.48
2022-11-17T16:41:46.101Z,99184.42
2022-11-17T16:44:17.107Z,99185.34
2022-11-17T16:46:48.550Z,99183.22
2022-11-17T16:49:19.636Z,99182.45
2022-11-17T16:51:50.998Z,99185.88
2022-11-17T16:54:20.342Z,99179.50
2022-11-17T16:56:49.010Z,99183.86
2022-11-17T16:59:17.848Z,99185.22
2022-11-17T17:01:47.683Z,99186.70
2022-11-17T17:04:16.412Z,99182.92
2022-11-17T17:06:46.080Z,99187.45
2022-11-17T17:09:15.445Z,99190.71
2022-11-17T17:11:44.073Z,99194.87
2022-11-17T17:14:15.029Z,99188.46
2022-11-17T17:16:43.852Z,99176.85
2022-11-17T17:19:14.534Z,99174.60
2022-11-17T17:21:44.165Z,99182.61
2022-11-17T17:24:12.824Z,99186.23
2022-11-17T17:26:42.985Z,99186.74
2022-11-17T17:29:11.903Z,99191.30
2022-11-17T17:31:42.649Z,99193.40
2022-11-17T17:34:13.632Z,99194.00
2022-11-17T17:36:42.343Z,99196.33
2022-11-17T17:39:16.069Z,99206.37
2022-11-17T17:41:46.163Z,99214.14
2022-11-17T17:44:18.054Z,99222.02
2022-11-17T17:46:48.546Z,99223.15
2022-11-17T17:49:19.380Z,99220.80
2022-11-17T17:51:48.134Z,99217.91
2022-11-17T17:54:21.585Z,99221.30
2022-11-17T17:56:50.370Z,99221.33
2022-11-17T17:59:19.466Z,99221.53
2022-11-17T18:01:49.450Z,99228.34
2022-11-17T18:04:18.131Z,99230.35
2022-11-17T18:06:48.399Z,99239.31
2022-11-17T18:09:20.510Z,99249.58
2022-11-17T18:11:50.995Z,99249.55
2022-11-17T18:14:24.766Z,99251.89
2022-11-17T18:16:54.012Z,99254.34
2022-11-17T18:19:26.873Z,99254.35
2022-11-17T18:21:58.393Z,99255.13
2022-11-17T18:24:26.930Z,99260.61
2022-11-17T18:26:55.648Z,99258.51
2022-11-17T18:29:24.929Z,99251.64
2022-11-17T18:31:53.450Z,99250.86
2022-11-17T18:34:24.629Z,99259.56
2022-11-17T18:36:55.868Z,99271.50
2022-11-17T18:39:25.078Z,99270.52
2022-11-17T18:41:53.555Z,99272.21
2022-11-17T18:44:22.080Z,99270.11
2022-11-17T18:46:50.478Z,99269.52
2022-11-17T18:49:19.427Z,99266.88
2022-11-17T18:51:50.532Z,99266.88
2022-11-17T18:54:18.999Z,99266.42
2022-11-17T18:56:47.535Z,99273.69
2022-11-17T18:59:18.729Z,99275.25
2022-11-17T19:01:47.616Z,99269.65
2022-11-17T19:04:16.202Z,99273.05
2022-11-17T19:06:44.756Z,99291.71
2022-11-17T19:09:13.808Z,99295.09
2022-11-17T19:11:42.626Z,99296.95
2022-11-17T19:14:11.010Z,99295.55
2022-11-17T19:16:44.435Z,99296.60
2022-11-17T19:19:14.574Z,99304.31
2022-11-17T19:21:43.634Z,99306.20
2022-11-17T19:24:12.392Z,99298.13
2022-11-17T19:26:40.824Z,99296.09
2022-11-17T19:29:16.734Z,99304.55
2022-11-17T19:31:47.640Z,99305.01
2022-11-17T19:34:18.736Z,99313.98
2022-11-17T19:36:47.423Z,99319.08
2022-11-17T19:39:17.170Z,99329.42
2022-11-17T19:41:47.747Z,99323.41
2022-11-17T19:44:16.399Z,99322.44
2022-11-17T19:46:47.979Z,99324.21
2022-11-17T19:49:16.674Z,99323.39
2022-11-17T19:51:45.516Z,99318.02
2022-11-17T19:54:16.249Z,99316.05
2022-11-17T19:56:44.921Z,99315.38
2022-11-17T19:59:16.349Z,99312.45
2022-11-17T20:01:46.289Z,99311.89
2022-11-17T20:04:15.155Z,99308.67
2022-11-17T20:06:43.656Z,99301.84
2022-11-17T20:09:15.164Z,99303.50
2022-11-17T20:11:44.148Z,99311.24
2022-11-17T20:14:14.580Z,99308.08
2022-11-17T20:16:43.453Z,99296.30
2022-11-17T20:19:14.224Z,99297.77
2022-11-17T20:21:43.085Z,99296.81
2022-11-17T20:24:11.779Z,99294.75
2022-11-17T20:26:42.729Z,99307.12
2022-11-17T20:29:11.298Z,99311.41
2022-11-17T20:31:40.021Z,99311.42
2022-11-17T20:34:12.902Z,99318.80
2022-11-17T20:36:41.422Z,99325.83
2022-11-17T20:39:10.150Z,99323.45
2022-11-17T20:41:38.747Z,99323.64
2022-11-17T20:44:24.055Z,99314.10
2022-11-17T20:46:57.797Z,99316.39
2022-11-17T20:49:30.050Z,99312.41
2022-11-17T20:51:58.774Z,99310.37
2022-11-17T20:54:27.365Z,99312.66
2022-11-17T20:56:55.981Z,99305.66
2022-11-17T20:59:24.817Z,99304.08
2022-11-17T21:01:53.671Z,99301.66
2022-11-17T21:04:22.258Z,99303.84
2022-11-17T21:06:51.049Z,99308.33
2022-11-17T21:09:19.881Z,99306.06
2022-11-17T21:11:57.431Z,99301.98
2022-11-17T21:14:27.707Z,99298.33
2022-11-17T21:16:57.872Z,99299.52
2022-11-17T21:19:27.604Z,99308.58
2022-11-17T21:21:56.511Z,99310.54
2022-11-17T21:24:26.345Z,99312.77
2022-11-17T21:26:54.793Z,99319.20
2022-11-17T21:29:23.419Z,99320.75
2022-11-17T21:31:51.964Z,99326.17
2022-11-17T21:34:20.576Z,99329.86
2022-11-17T21:36:49.233Z,99328.69
2022-11-17T21:39:19.804Z,99329.45
2022-11-17T21:41:48.541Z,99330.50
2022-11-17T21:44:17.396Z,99332.73
2022-11-17T21:46:45.865Z,99340.23
2022-11-17T21:49:14.758Z,99348.56
2022-11-17T21:51:43.650Z,99352.79
2022-11-17T21:54:12.172Z,99361.40
2022-11-17T21:56:40.965Z,99364.77
2022-11-17T21:59:14.233Z,99369.77
2022-11-17T22:01:43.870Z,99371.23
2022-11-17T22:04:13.326Z,99371.35
2022-11-17T22:06:42.071Z,99361.34
2022-11-17T22:09:10.597Z,99353.36
2022-11-17T22:11:39.298Z,99355.13
2022-11-17T22:14:16.281Z,99356.98
2022-11-17T22:16:53.969Z,99356.46
2022-11-17T22:19:26.962Z,99354.98
2022-11-17T22:21:55.614Z,99356.88
2022-11-17T22:24:24.257Z,99350.71
2022-11-17T22:26:52.629Z,99355.79
2022-11-17T22:29:22.558Z,99353.87
2022-11-17T22:31:51.435Z,99357.32
2022-11-17T22:34:19.870Z,99355.30
2022-11-17T22:36:48.267Z,99358.27
2022-11-17T22:39:17.060Z,99368.48
2022-11-17T22:41:45.649Z,99358.17
2022-11-17T22:44:16.017Z,99347.77
2022-11-17T22:46:44.472Z,99347.16
2022-11-17T22:49:13.502Z,99343.01
2022-11-17T22:52:00.664Z,99340.83
2022-11-17T22:54:30.472Z,99339.92
2022-11-17T22:56:59.265Z,99340.16
2022-11-17T22:59:29.053Z,99344.47
2022-11-17T23:01:57.652Z,99346.30
2022-11-17T23:04:26.268Z,99348.78
2022-11-17T23:06:54.929Z,99350.50
2022-11-17T23:09:23.458Z,99354.36
2022-11-17T23:11:51.904Z,99354.55
2022-11-17T23:14:20.428Z,99361.05
2022-11-17T23:16:49.003Z,99362.95
2022-11-17T23:19:17.915Z,99362.64
2022-11-17T23:21:46.817Z,99363.61
2022-11-17T23:24:15.345Z,99372.20
2022-11-17T23:26:43.895Z,99370.41
2022-11-17T23:29:12.387Z,99375.89
2022-11-17T23:31:40.878Z,99372.89
2022-11-17T23:34:11.004Z,99369.70
2022-11-17T23:36:39.805Z,99371.73
2022-11-17T23:39:08.414Z,99373.48
2022-11-17T23:41:37.289Z,99374.93
2022-11-17T23:44:06.471Z,99383.12
2022-11-17T23:46:35.277Z,99383.72
2022-11-17T23:49:04.131Z,99381.14
2022-11-17T23:51:32.822Z,99386.70
2022-11-17T23:54:03.075Z,99391.23
2022-11-17T23:56:33.849Z,99395.61
2022-11-17T23:59:02.454Z,99397.23
